Flight Track Log - Related Links

Times and Time Zones

All times are in EDT time to prevent confusion due to time zone crossing. See the UAL3776 flight status page for this flight to view local times or setup timezone preferences in your user account.

Time Position Orientation Groundspeed Altitude Reporting Facility
EDT Latitude Longitude Course Direction KTS MPH feet Rate Location/Type
Sat 08:57:09 PM 41.9333 -87.8667 185° South 200 230 3,600  Level Chicago TRACON
Sat 08:59:08 PM 41.8039 -87.8661 180° South 260 299 8,200 2,400 Climbing Chicago Center
Sat 09:00:09 PM 41.7256 -87.8694 182° South 279 321 10,800 2,656 Climbing Chicago Center
Sat 09:01:10 PM 41.6478 -87.8722 182° South 280 322 13,600 1,902 Climbing Chicago Center
Sat 09:02:00 PM 41.3840 -87.6276 185° South  Level Estimated
Sat 09:02:12 PM 41.5583 -87.8744 181° South 325 374 14,700  Level Chicago Center
Sat 09:03:13 PM 41.4606 -87.8781 182° South 346 398 16,800 2,016 Climbing Chicago Center
Sat 09:04:14 PM 41.3608 -87.8828 182° South 352 405 18,800 1,820 Climbing Chicago Center
Sat 09:05:15 PM 41.2572 -87.8925 184° South 366 421 20,500 1,574 Climbing Chicago Center
Sat 09:06:16 PM 41.1522 -87.8908 179° South 375 432 22,000 1,415 Climbing Chicago Center
Sat 09:07:18 PM 41.0436 -87.8883 179° South 389 448 23,400 1,415 Climbing Chicago Center
Sat 09:08:19 PM 40.9333 -87.8833 178° South 396 456 24,900 1,328 Climbing Chicago Center
Sat 09:09:20 PM 40.8206 -87.8797 179° South 404 465 26,100 1,328 Climbing Chicago Center
Sat 09:10:21 PM 40.6833 -87.8758 179° South 412 474 27,600 1,377 Climbing Chicago Center
Sat 09:11:22 PM 40.5689 -87.8728 179° South 413 475 28,900 1,171 Climbing Chicago Center
Sat 09:12:24 PM 40.4533 -87.8686 178° South 417 480 30,000 1,000 Climbing Chicago Center
Sat 09:13:10 PM 40.3600 -87.8669 179° South 419 482 30,700 841 Climbing Indianapolis Center
Sat 09:14:11 PM 40.2425 -87.8628 178° South 423 487 31,500 1,033 Climbing Indianapolis Center
Sat 09:15:12 PM 40.1247 -87.8575 178° South 426 490 32,800 738 Climbing Indianapolis Center
Sat 09:16:13 PM 40.0103 -87.8378 172° South 419 482 33,000 98 Climbing Indianapolis Center
Sat 09:17:14 PM 39.9011 -87.8039 167° South 407 468 33,000  Level Indianapolis Center
Sat 09:18:15 PM 39.7917 -87.7711 167° South 405 466 33,000  Level Indianapolis Center
Sat 09:19:16 PM 39.6850 -87.7364 166° South 400 460 33,000  Level Indianapolis Center
Sat 09:20:17 PM 39.5761 -87.7017 166° South 405 466 33,000  Level Indianapolis Center
Sat 09:21:18 PM 39.4408 -87.6611 167° South 415 478 33,000  Level Indianapolis Center
Sat 09:22:19 PM 39.3342 -87.6281 167° South 401 461 33,000  Level Indianapolis Center
Sat 09:23:20 PM 39.2283 -87.5953 167° South 396 456 33,000  Level Indianapolis Center
Sat 09:24:21 PM 39.1214 -87.5622 167° South 396 456 33,000  Level Indianapolis Center
Sat 09:25:22 PM 39.0114 -87.5294 167° South 399 459 33,000  Level Indianapolis Center
Sat 09:26:23 PM 38.9033 -87.4953 166° South 399 459 33,000  Level Indianapolis Center
Sat 09:27:24 PM 38.7972 -87.4639 167° South 392 451 33,000  Level Indianapolis Center
Sat 09:28:25 PM 38.6936 -87.4333 167° South 384 442 33,000  Level Indianapolis Center
Sat 09:29:26 PM 38.5906 -87.4008 166° South 382 440 33,000  Level Indianapolis Center
Sat 09:30:27 PM 38.4861 -87.3694 167° South 384 442 33,000  Level Indianapolis Center
Sat 09:31:28 PM 38.3811 -87.3381 167° South 389 448 33,000  Level Indianapolis Center
Sat 09:32:29 PM 38.2767 -87.3075 167° South 390 449 33,000  Level Indianapolis Center
Sat 09:33:29 PM 38.1536 -87.2703 167° South 381 438 33,000  Level Indianapolis Center
Sat 09:34:30 PM 38.0531 -87.2400 167° South 375 432 33,000  Level Indianapolis Center
Sat 09:35:31 PM 37.9517 -87.2097 167° South 374 430 33,000  Level Indianapolis Center
Sat 09:36:32 PM 37.8508 -87.1800 167° South 372 428 33,000  Level Indianapolis Center
Sat 09:37:33 PM 37.7489 -87.1486 166° South 376 433 33,000  Level Indianapolis Center
Sat 09:38:34 PM 37.6450 -87.1186 167° South 381 438 33,000  Level Indianapolis Center
Sat 09:39:32 PM 37.5367 -87.0906 168° South 379 436 33,000  Level Memphis Center
Sat 09:40:32 PM 37.4317 -87.0608 167° South 384 442 33,000 50 Level Memphis Center
Sat 09:41:32 PM 37.3267 -87.0289 166° South 390 449 33,100  Climbing Memphis Center
Sat 09:42:32 PM 37.2175 -86.9944 166° South 396 456 33,000 -50 Descending Memphis Center
Sat 09:43:32 PM 37.1142 -86.9467 160° South 402 463 33,000  Level Memphis Center
Sat 09:44:32 PM 37.0044 -86.9019 162° South 407 468 33,000  Level Memphis Center
Sat 09:45:32 PM 36.8992 -86.8547 160° South 407 468 33,000  Level Memphis Center
Sat 09:46:32 PM 36.7894 -86.8075 161° South 412 474 33,000  Level Memphis Center
Sat 09:47:32 PM 36.6944 -86.7653 160° South 412 474 33,000  Level Memphis Center
Sat 09:48:32 PM 36.5867 -86.7183 161° South 404 465 33,000  Level Memphis Center
Sat 09:49:32 PM 36.4769 -86.6717 161° South 409 471 33,000  Level Memphis Center
Sat 09:50:32 PM 36.3544 -86.6206 161° South 414 476 33,000  Level Memphis Center
Sat 09:51:32 PM 36.2425 -86.5717 161° South 414 476 33,000  Level Memphis Center
Sat 09:52:32 PM 36.1328 -86.5278 162° South 420 483 33,000  Level Memphis Center
Sat 09:53:32 PM 36.0208 -86.4819 162° South 420 483 33,000  Level Memphis Center
Sat 09:54:32 PM 35.9131 -86.4356 161° South 420 483 33,000  Level Memphis Center
Sat 09:56:34 PM 35.6992 -86.3275 158° South 419 482 33,000  Level Atlanta Center
Sat 09:57:34 PM 35.5983 -86.2481 147° Southeast 424 488 33,000  Level Atlanta Center
Sat 09:58:34 PM 35.5036 -86.1689 146° Southeast 424 488 33,000  Level Atlanta Center
Sat 09:59:34 PM 35.4172 -86.1006 147° Southeast 419 482 33,000  Level Atlanta Center
Sat 10:00:34 PM 35.3247 -86.0269 147° Southeast 406 467 33,000 -950 Level Atlanta Center
Sat 10:01:34 PM 35.2278 -85.9508 147° Southeast 411 473 31,100 -2,150 Descending Atlanta Center
Sat 10:02:34 PM 35.1308 -85.8775 148° Southeast 395 455 28,700 -2,600 Descending Atlanta Center
Sat 10:03:34 PM 35.0442 -85.8094 147° Southeast 377 434 25,900 -2,350 Descending Atlanta Center
Sat 10:04:34 PM 34.9594 -85.7419 147° Southeast 371 427 24,000 -950 Descending Atlanta Center
Sat 10:05:34 PM 34.8708 -85.6717 147° Southeast 371 427 24,000  Level Atlanta Center
Sat 10:06:34 PM 34.7819 -85.6042 148° Southeast 371 427 24,000  Level Atlanta Center
Sat 10:07:34 PM 34.6950 -85.5369 148° Southeast 371 427 24,000 -350 Level Atlanta Center
Sat 10:08:34 PM 34.6083 -85.4672 146° Southeast 378 435 23,300 -1,550 Descending Atlanta Center
Sat 10:09:34 PM 34.5233 -85.4028 148° Southeast 373 429 20,900 -2,350 Descending Atlanta Center
Sat 10:10:34 PM 34.4447 -85.3411 147° Southeast 361 415 18,600 -2,200 Descending Atlanta Center
Sat 10:11:34 PM 34.3744 -85.2847 146° Southeast 347 399 16,500 -2,200 Descending Atlanta Center
Sat 10:12:34 PM 34.2958 -85.2256 148° Southeast 335 386 14,200 -1,700 Descending Atlanta Center
Sat 10:13:34 PM 34.2211 -85.1667 147° Southeast 329 379 13,100 -550 Descending Atlanta Center
Sat 10:14:34 PM 34.1592 -85.1108 143° Southeast 304 350 13,100  Level Atlanta Center
Sat 10:15:34 PM 34.1053 -85.0472 136° Southeast 276 318 13,100 -450 Level Atlanta Center
Sat 10:16:34 PM 34.0536 -84.9817 134° Southeast 265 305 12,200 -1,200 Descending Atlanta Center
Sat 10:17:34 PM 33.9978 -84.9108 134° Southeast 265 305 10,700 -1,050 Descending Atlanta Center
Sat 10:18:34 PM 33.9461 -84.8428 132° Southeast 272 313 10,100 -700 Descending Atlanta Center
Sat 10:19:34 PM 33.8817 -84.8019 152° Southeast 272 313 9,300 -1,200 Descending Atlanta Center
Sat 10:20:34 PM 33.8128 -84.7839 168° South 256 295 7,700 -1,550 Descending Atlanta Center
Sat 10:21:34 PM 33.7442 -84.7658 168° South 256 295 6,200 -1,500 Descending Atlanta Center
Sat 10:22:34 PM 33.6753 -84.7528 171° South 256 295 4,700 -900 Descending Atlanta Center
Sat 10:23:54 PM 33.6500 -84.6667 109° East 192 221 4,100 -247 Descending Atlanta TRACON
Sat 10:25:00 PM 33.6500 -84.6167 90° East 166 191 4,100 -524 Level Atlanta TRACON
Sat 10:26:00 PM 33.6500 -84.5667 90° East 170 196 3,000 -944 Descending Atlanta TRACON
Sat 10:26:48 PM 33.6500 -84.5167 90° East 151 174 2,400 -765 Descending Atlanta TRACON
Sat 10:27:42 PM 33.6500 -84.4833 90° East 133 153 1,700 -778 Descending Atlanta TRACON
Sat 10:29:00 PM 33.6367 -84.4279 North  Level Estimated
Sat 10:36:00 PM 33.6367 -84.4279 North  Level Estimated
Sat 10:37:00 PM 33.6367 -84.4279 North  Level Estimated

Login

Don't have an account? Register now (free) for customized features, flight alerts, and more!